sensor_id;sensor_type;location;lat;lon;timestamp;P1;durP1;ratioP1;P2;durP2;ratioP2
4198;SDS011;2113;50.946;14.610;2023-11-19T00:01:18;13.00;;;8.70;;
4198;SDS011;2113;50.946;14.610;2023-11-19T00:03:47;13.80;;;8.10;;
4198;SDS011;2113;50.946;14.610;2023-11-19T00:06:17;13.05;;;8.57;;
4198;SDS011;2113;50.946;14.610;2023-11-19T00:08:45;12.55;;;7.55;;
4198;SDS011;2113;50.946;14.610;2023-11-19T00:11:13;12.57;;;7.32;;
4198;SDS011;2113;50.946;14.610;2023-11-19T00:13:42;15.65;;;8.00;;
4198;SDS011;2113;50.946;14.610;2023-11-19T00:16:10;15.25;;;8.63;;
4198;SDS011;2113;50.946;14.610;2023-11-19T00:18:40;15.10;;;8.38;;
4198;SDS011;2113;50.946;14.610;2023-11-19T00:21:08;16.58;;;8.35;;
4198;SDS011;2113;50.946;14.610;2023-11-19T00:23:37;15.68;;;9.32;;
4198;SDS011;2113;50.946;14.610;2023-11-19T00:26:05;15.13;;;8.48;;
4198;SDS011;2113;50.946;14.610;2023-11-19T00:28:36;13.95;;;8.40;;
4198;SDS011;2113;50.946;14.610;2023-11-19T00:31:05;11.55;;;7.57;;
4198;SDS011;2113;50.946;14.610;2023-11-19T00:33:34;15.52;;;8.68;;
4198;SDS011;2113;50.946;14.610;2023-11-19T00:36:17;11.70;;;8.07;;
4198;SDS011;2113;50.946;14.610;2023-11-19T00:38:45;14.13;;;7.47;;
4198;SDS011;2113;50.946;14.610;2023-11-19T00:41:14;12.98;;;8.27;;
4198;SDS011;2113;50.946;14.610;2023-11-19T00:43:43;13.13;;;8.82;;
4198;SDS011;2113;50.946;14.610;2023-11-19T00:46:11;14.25;;;8.93;;
4198;SDS011;2113;50.946;14.610;2023-11-19T00:48:40;14.65;;;8.68;;
4198;SDS011;2113;50.946;14.610;2023-11-19T00:51:08;14.10;;;8.00;;
4198;SDS011;2113;50.946;14.610;2023-11-19T00:53:40;15.23;;;9.02;;
4198;SDS011;2113;50.946;14.610;2023-11-19T00:56:10;13.90;;;8.25;;
4198;SDS011;2113;50.946;14.610;2023-11-19T00:58:39;15.68;;;9.40;;
4198;SDS011;2113;50.946;14.610;2023-11-19T01:01:07;16.77;;;8.88;;
4198;SDS011;2113;50.946;14.610;2023-11-19T01:03:36;17.02;;;9.20;;
4198;SDS011;2113;50.946;14.610;2023-11-19T01:06:04;17.30;;;8.75;;
4198;SDS011;2113;50.946;14.610;2023-11-19T01:08:33;20.90;;;8.35;;
4198;SDS011;2113;50.946;14.610;2023-11-19T01:11:04;16.58;;;9.10;;
4198;SDS011;2113;50.946;14.610;2023-11-19T01:13:32;15.65;;;8.10;;
4198;SDS011;2113;50.946;14.610;2023-11-19T01:16:04;17.00;;;9.55;;
4198;SDS011;2113;50.946;14.610;2023-11-19T01:23:23;14.18;;;7.80;;
4198;SDS011;2113;50.946;14.610;2023-11-19T01:26:17;10.93;;;7.05;;
4198;SDS011;2113;50.946;14.610;2023-11-19T01:28:45;10.07;;;6.75;;
4198;SDS011;2113;50.946;14.610;2023-11-19T01:31:19;11.00;;;6.10;;
4198;SDS011;2113;50.946;14.610;2023-11-19T01:33:47;11.35;;;7.65;;
4198;SDS011;2113;50.946;14.610;2023-11-19T01:36:15;8.57;;;5.80;;
4198;SDS011;2113;50.946;14.610;2023-11-19T01:38:43;11.38;;;6.40;;
4198;SDS011;2113;50.946;14.610;2023-11-19T01:41:12;12.07;;;6.90;;
4198;SDS011;2113;50.946;14.610;2023-11-19T01:43:41;9.00;;;5.70;;
4198;SDS011;2113;50.946;14.610;2023-11-19T01:46:09;12.15;;;6.30;;
4198;SDS011;2113;50.946;14.610;2023-11-19T01:48:39;11.00;;;6.75;;
4198;SDS011;2113;50.946;14.610;2023-11-19T01:51:11;14.90;;;6.88;;
4198;SDS011;2113;50.946;14.610;2023-11-19T01:53:43;12.13;;;6.60;;
4198;SDS011;2113;50.946;14.610;2023-11-19T01:56:13;7.75;;;4.85;;
4198;SDS011;2113;50.946;14.610;2023-11-19T01:58:44;8.02;;;5.25;;
4198;SDS011;2113;50.946;14.610;2023-11-19T02:01:13;8.35;;;4.80;;
4198;SDS011;2113;50.946;14.610;2023-11-19T02:03:43;9.50;;;4.80;;
4198;SDS011;2113;50.946;14.610;2023-11-19T02:06:11;13.10;;;4.93;;
4198;SDS011;2113;50.946;14.610;2023-11-19T02:08:40;7.10;;;4.25;;
4198;SDS011;2113;50.946;14.610;2023-11-19T02:11:08;9.43;;;5.50;;
4198;SDS011;2113;50.946;14.610;2023-11-19T02:13:36;10.07;;;5.30;;
4198;SDS011;2113;50.946;14.610;2023-11-19T02:16:07;9.45;;;4.90;;
4198;SDS011;2113;50.946;14.610;2023-11-19T02:18:38;9.25;;;4.80;;
4198;SDS011;2113;50.946;14.610;2023-11-19T02:21:06;8.75;;;4.03;;
4198;SDS011;2113;50.946;14.610;2023-11-19T02:23:34;6.65;;;4.28;;
4198;SDS011;2113;50.946;14.610;2023-11-19T02:26:04;9.10;;;4.55;;
4198;SDS011;2113;50.946;14.610;2023-11-19T02:28:42;9.02;;;4.95;;
4198;SDS011;2113;50.946;14.610;2023-11-19T02:31:11;9.23;;;5.60;;
4198;SDS011;2113;50.946;14.610;2023-11-19T02:33:39;11.75;;;5.82;;
4198;SDS011;2113;50.946;14.610;2023-11-19T02:36:08;11.00;;;6.55;;
4198;SDS011;2113;50.946;14.610;2023-11-19T02:38:37;11.30;;;5.60;;
4198;SDS011;2113;50.946;14.610;2023-11-19T02:41:05;12.43;;;6.22;;
4198;SDS011;2113;50.946;14.610;2023-11-19T02:43:36;10.40;;;5.55;;
4198;SDS011;2113;50.946;14.610;2023-11-19T02:46:07;8.50;;;4.75;;
4198;SDS011;2113;50.946;14.610;2023-11-19T02:48:38;14.45;;;5.13;;
4198;SDS011;2113;50.946;14.610;2023-11-19T02:54:01;11.75;;;6.22;;
4198;SDS011;2113;50.946;14.610;2023-11-19T02:56:30;9.20;;;5.28;;
4198;SDS011;2113;50.946;14.610;2023-11-19T02:59:02;9.55;;;5.15;;
4198;SDS011;2113;50.946;14.610;2023-11-19T03:01:37;8.18;;;4.63;;
4198;SDS011;2113;50.946;14.610;2023-11-19T03:04:10;7.30;;;5.22;;
4198;SDS011;2113;50.946;14.610;2023-11-19T03:06:43;7.90;;;4.70;;
4198;SDS011;2113;50.946;14.610;2023-11-19T03:09:12;7.07;;;4.80;;
4198;SDS011;2113;50.946;14.610;2023-11-19T03:11:40;9.77;;;5.05;;
4198;SDS011;2113;50.946;14.610;2023-11-19T03:14:08;8.82;;;5.03;;
4198;SDS011;2113;50.946;14.610;2023-11-19T03:16:38;10.20;;;5.00;;
4198;SDS011;2113;50.946;14.610;2023-11-19T03:19:06;8.70;;;4.57;;
4198;SDS011;2113;50.946;14.610;2023-11-19T03:21:34;7.03;;;4.30;;
4198;SDS011;2113;50.946;14.610;2023-11-19T03:24:03;6.95;;;4.32;;
4198;SDS011;2113;50.946;14.610;2023-11-19T03:26:33;7.57;;;4.38;;
4198;SDS011;2113;50.946;14.610;2023-11-19T03:29:02;9.32;;;4.43;;
4198;SDS011;2113;50.946;14.610;2023-11-19T03:31:30;7.88;;;4.15;;
4198;SDS011;2113;50.946;14.610;2023-11-19T03:34:00;6.32;;;4.35;;
4198;SDS011;2113;50.946;14.610;2023-11-19T03:36:31;9.15;;;4.82;;
4198;SDS011;2113;50.946;14.610;2023-11-19T03:39:00;8.20;;;4.93;;
4198;SDS011;2113;50.946;14.610;2023-11-19T03:41:29;9.02;;;5.45;;
4198;SDS011;2113;50.946;14.610;2023-11-19T03:44:07;9.15;;;5.25;;
4198;SDS011;2113;50.946;14.610;2023-11-19T03:46:36;9.27;;;5.65;;
4198;SDS011;2113;50.946;14.610;2023-11-19T03:49:05;8.00;;;5.72;;
4198;SDS011;2113;50.946;14.610;2023-11-19T03:51:34;9.07;;;5.20;;
4198;SDS011;2113;50.946;14.610;2023-11-19T03:54:02;7.72;;;4.50;;
4198;SDS011;2113;50.946;14.610;2023-11-19T03:56:31;10.02;;;4.40;;
4198;SDS011;2113;50.946;14.610;2023-11-19T03:58:59;11.32;;;6.18;;
4198;SDS011;2113;50.946;14.610;2023-11-19T04:01:27;10.57;;;5.25;;
4198;SDS011;2113;50.946;14.610;2023-11-19T04:03:55;9.77;;;5.70;;
4198;SDS011;2113;50.946;14.610;2023-11-19T04:06:25;8.13;;;5.10;;
4198;SDS011;2113;50.946;14.610;2023-11-19T04:08:53;11.55;;;5.53;;
4198;SDS011;2113;50.946;14.610;2023-11-19T04:11:22;10.30;;;5.55;;
4198;SDS011;2113;50.946;14.610;2023-11-19T04:13:50;8.38;;;5.10;;
4198;SDS011;2113;50.946;14.610;2023-11-19T04:16:19;8.65;;;5.18;;
4198;SDS011;2113;50.946;14.610;2023-11-19T04:18:47;11.15;;;6.57;;
4198;SDS011;2113;50.946;14.610;2023-11-19T04:21:15;11.30;;;6.82;;
4198;SDS011;2113;50.946;14.610;2023-11-19T04:23:46;10.77;;;5.80;;
4198;SDS011;2113;50.946;14.610;2023-11-19T04:26:14;11.57;;;6.10;;
4198;SDS011;2113;50.946;14.610;2023-11-19T04:28:42;8.05;;;5.25;;
4198;SDS011;2113;50.946;14.610;2023-11-19T04:31:11;8.23;;;5.50;;
4198;SDS011;2113;50.946;14.610;2023-11-19T04:33:39;10.50;;;6.18;;
4198;SDS011;2113;50.946;14.610;2023-11-19T04:36:08;14.20;;;6.18;;
4198;SDS011;2113;50.946;14.610;2023-11-19T04:38:37;17.08;;;6.47;;
4198;SDS011;2113;50.946;14.610;2023-11-19T04:41:07;12.20;;;6.03;;
4198;SDS011;2113;50.946;14.610;2023-11-19T04:43:36;14.50;;;7.07;;
4198;SDS011;2113;50.946;14.610;2023-11-19T04:46:05;8.07;;;5.10;;
4198;SDS011;2113;50.946;14.610;2023-11-19T04:48:33;12.13;;;6.30;;
4198;SDS011;2113;50.946;14.610;2023-11-19T04:51:05;7.57;;;4.93;;
4198;SDS011;2113;50.946;14.610;2023-11-19T04:53:33;13.75;;;5.97;;
4198;SDS011;2113;50.946;14.610;2023-11-19T04:56:01;15.43;;;5.75;;
4198;SDS011;2113;50.946;14.610;2023-11-19T04:58:37;11.75;;;7.03;;
4198;SDS011;2113;50.946;14.610;2023-11-19T05:01:05;9.68;;;5.57;;
4198;SDS011;2113;50.946;14.610;2023-11-19T05:03:34;9.85;;;5.75;;
4198;SDS011;2113;50.946;14.610;2023-11-19T05:06:03;11.35;;;7.30;;
4198;SDS011;2113;50.946;14.610;2023-11-19T05:08:31;13.55;;;7.60;;
4198;SDS011;2113;50.946;14.610;2023-11-19T05:11:00;8.05;;;4.85;;
4198;SDS011;2113;50.946;14.610;2023-11-19T05:13:30;9.38;;;5.97;;
4198;SDS011;2113;50.946;14.610;2023-11-19T05:15:58;10.40;;;6.80;;
4198;SDS011;2113;50.946;14.610;2023-11-19T05:18:26;14.82;;;9.13;;
4198;SDS011;2113;50.946;14.610;2023-11-19T05:20:54;13.00;;;6.30;;
4198;SDS011;2113;50.946;14.610;2023-11-19T05:23:23;9.93;;;6.25;;
4198;SDS011;2113;50.946;14.610;2023-11-19T05:25:51;11.32;;;5.90;;
4198;SDS011;2113;50.946;14.610;2023-11-19T05:28:19;12.65;;;5.80;;
4198;SDS011;2113;50.946;14.610;2023-11-19T05:30:48;9.23;;;5.80;;
4198;SDS011;2113;50.946;14.610;2023-11-19T05:33:17;10.45;;;5.65;;
4198;SDS011;2113;50.946;14.610;2023-11-19T05:35:45;10.68;;;5.50;;
4198;SDS011;2113;50.946;14.610;2023-11-19T05:38:13;6.80;;;4.90;;
4198;SDS011;2113;50.946;14.610;2023-11-19T05:40:42;9.10;;;5.13;;
4198;SDS011;2113;50.946;14.610;2023-11-19T05:43:10;10.63;;;5.53;;
4198;SDS011;2113;50.946;14.610;2023-11-19T05:45:38;10.65;;;5.50;;
4198;SDS011;2113;50.946;14.610;2023-11-19T05:48:08;10.75;;;6.57;;
4198;SDS011;2113;50.946;14.610;2023-11-19T05:50:36;12.13;;;5.60;;
4198;SDS011;2113;50.946;14.610;2023-11-19T05:53:04;7.57;;;5.00;;
4198;SDS011;2113;50.946;14.610;2023-11-19T05:55:35;13.32;;;7.65;;
4198;SDS011;2113;50.946;14.610;2023-11-19T05:58:11;12.45;;;6.78;;
4198;SDS011;2113;50.946;14.610;2023-11-19T06:00:40;15.45;;;7.97;;
4198;SDS011;2113;50.946;14.610;2023-11-19T06:03:09;13.30;;;7.60;;
4198;SDS011;2113;50.946;14.610;2023-11-19T06:05:38;15.52;;;6.75;;
4198;SDS011;2113;50.946;14.610;2023-11-19T06:08:06;10.35;;;5.40;;
4198;SDS011;2113;50.946;14.610;2023-11-19T06:10:34;10.45;;;5.85;;
4198;SDS011;2113;50.946;14.610;2023-11-19T06:13:03;8.82;;;5.25;;
4198;SDS011;2113;50.946;14.610;2023-11-19T06:15:32;8.25;;;5.03;;
4198;SDS011;2113;50.946;14.610;2023-11-19T06:18:00;10.32;;;6.15;;
4198;SDS011;2113;50.946;14.610;2023-11-19T06:20:32;12.18;;;5.13;;
4198;SDS011;2113;50.946;14.610;2023-11-19T06:23:03;11.20;;;4.68;;
4198;SDS011;2113;50.946;14.610;2023-11-19T06:25:32;5.60;;;4.07;;
4198;SDS011;2113;50.946;14.610;2023-11-19T06:28:02;8.00;;;4.47;;
4198;SDS011;2113;50.946;14.610;2023-11-19T06:30:37;6.88;;;3.92;;
4198;SDS011;2113;50.946;14.610;2023-11-19T06:33:05;7.68;;;4.80;;
4198;SDS011;2113;50.946;14.610;2023-11-19T06:35:35;14.35;;;4.70;;
4198;SDS011;2113;50.946;14.610;2023-11-19T06:38:04;6.93;;;4.07;;
4198;SDS011;2113;50.946;14.610;2023-11-19T06:40:32;8.57;;;4.38;;
4198;SDS011;2113;50.946;14.610;2023-11-19T06:43:02;6.70;;;3.60;;
4198;SDS011;2113;50.946;14.610;2023-11-19T06:45:31;8.23;;;3.90;;
4198;SDS011;2113;50.946;14.610;2023-11-19T06:48:00;6.65;;;4.53;;
4198;SDS011;2113;50.946;14.610;2023-11-19T06:50:30;6.13;;;3.50;;
4198;SDS011;2113;50.946;14.610;2023-11-19T06:52:59;5.60;;;2.85;;
4198;SDS011;2113;50.946;14.610;2023-11-19T06:55:27;3.50;;;2.35;;
4198;SDS011;2113;50.946;14.610;2023-11-19T06:57:56;4.63;;;2.25;;
4198;SDS011;2113;50.946;14.610;2023-11-19T07:00:24;3.33;;;2.05;;
4198;SDS011;2113;50.946;14.610;2023-11-19T07:02:52;5.85;;;2.80;;
4198;SDS011;2113;50.946;14.610;2023-11-19T07:05:20;5.35;;;3.17;;
4198;SDS011;2113;50.946;14.610;2023-11-19T07:07:50;4.93;;;3.05;;
4198;SDS011;2113;50.946;14.610;2023-11-19T07:10:19;4.53;;;2.45;;
4198;SDS011;2113;50.946;14.610;2023-11-19T07:12:47;4.80;;;2.40;;
4198;SDS011;2113;50.946;14.610;2023-11-19T07:15:16;3.88;;;2.17;;
4198;SDS011;2113;50.946;14.610;2023-11-19T07:17:45;4.72;;;3.03;;
4198;SDS011;2113;50.946;14.610;2023-11-19T07:20:27;3.65;;;2.05;;
4198;SDS011;2113;50.946;14.610;2023-11-19T07:22:55;4.35;;;2.45;;
4198;SDS011;2113;50.946;14.610;2023-11-19T07:25:25;5.20;;;2.55;;
4198;SDS011;2113;50.946;14.610;2023-11-19T07:27:53;4.82;;;2.67;;
4198;SDS011;2113;50.946;14.610;2023-11-19T07:30:22;5.32;;;2.95;;
4198;SDS011;2113;50.946;14.610;2023-11-19T07:32:50;4.00;;;2.45;;
4198;SDS011;2113;50.946;14.610;2023-11-19T07:35:18;5.35;;;2.38;;
4198;SDS011;2113;50.946;14.610;2023-11-19T07:37:47;4.57;;;2.58;;
4198;SDS011;2113;50.946;14.610;2023-11-19T07:40:17;5.63;;;2.70;;
4198;SDS011;2113;50.946;14.610;2023-11-19T07:42:47;4.38;;;2.75;;
4198;SDS011;2113;50.946;14.610;2023-11-19T07:45:15;4.40;;;2.70;;
4198;SDS011;2113;50.946;14.610;2023-11-19T07:47:44;5.95;;;3.90;;
4198;SDS011;2113;50.946;14.610;2023-11-19T07:50:12;6.38;;;4.10;;
4198;SDS011;2113;50.946;14.610;2023-11-19T07:52:43;5.85;;;3.67;;
4198;SDS011;2113;50.946;14.610;2023-11-19T07:55:11;6.53;;;3.75;;
4198;SDS011;2113;50.946;14.610;2023-11-19T07:57:39;8.63;;;4.50;;
4198;SDS011;2113;50.946;14.610;2023-11-19T08:00:10;6.00;;;4.32;;
4198;SDS011;2113;50.946;14.610;2023-11-19T08:02:39;5.95;;;4.00;;
4198;SDS011;2113;50.946;14.610;2023-11-19T08:05:08;6.65;;;4.22;;
4198;SDS011;2113;50.946;14.610;2023-11-19T08:07:37;5.82;;;3.63;;
4198;SDS011;2113;50.946;14.610;2023-11-19T08:10:06;4.82;;;3.30;;
4198;SDS011;2113;50.946;14.610;2023-11-19T08:12:37;4.80;;;2.75;;
4198;SDS011;2113;50.946;14.610;2023-11-19T08:15:06;4.18;;;2.83;;
4198;SDS011;2113;50.946;14.610;2023-11-19T08:17:36;4.93;;;2.50;;
4198;SDS011;2113;50.946;14.610;2023-11-19T08:20:05;4.50;;;2.60;;
4198;SDS011;2113;50.946;14.610;2023-11-19T08:22:37;5.00;;;2.40;;
4198;SDS011;2113;50.946;14.610;2023-11-19T08:25:05;4.53;;;2.47;;
4198;SDS011;2113;50.946;14.610;2023-11-19T08:27:34;3.30;;;1.88;;
4198;SDS011;2113;50.946;14.610;2023-11-19T08:30:03;3.72;;;2.08;;
4198;SDS011;2113;50.946;14.610;2023-11-19T08:32:32;3.47;;;2.08;;
4198;SDS011;2113;50.946;14.610;2023-11-19T08:35:03;4.05;;;2.08;;
4198;SDS011;2113;50.946;14.610;2023-11-19T08:37:32;4.68;;;2.35;;
4198;SDS011;2113;50.946;14.610;2023-11-19T08:40:00;3.67;;;2.00;;
4198;SDS011;2113;50.946;14.610;2023-11-19T08:42:29;3.53;;;1.80;;
4198;SDS011;2113;50.946;14.610;2023-11-19T08:44:57;3.80;;;2.45;;
4198;SDS011;2113;50.946;14.610;2023-11-19T08:47:25;3.60;;;2.20;;
4198;SDS011;2113;50.946;14.610;2023-11-19T08:49:54;5.43;;;3.30;;
4198;SDS011;2113;50.946;14.610;2023-11-19T08:52:26;4.32;;;2.78;;
4198;SDS011;2113;50.946;14.610;2023-11-19T08:54:57;3.75;;;2.40;;
4198;SDS011;2113;50.946;14.610;2023-11-19T08:57:25;4.45;;;2.83;;
4198;SDS011;2113;50.946;14.610;2023-11-19T08:59:54;4.22;;;3.00;;
4198;SDS011;2113;50.946;14.610;2023-11-19T09:02:22;5.00;;;3.88;;
4198;SDS011;2113;50.946;14.610;2023-11-19T09:04:50;4.78;;;3.60;;
4198;SDS011;2113;50.946;14.610;2023-11-19T09:07:20;6.60;;;4.07;;
4198;SDS011;2113;50.946;14.610;2023-11-19T09:09:50;5.38;;;3.40;;
4198;SDS011;2113;50.946;14.610;2023-11-19T09:12:18;5.65;;;4.20;;
4198;SDS011;2113;50.946;14.610;2023-11-19T09:14:46;4.22;;;3.03;;
4198;SDS011;2113;50.946;14.610;2023-11-19T09:17:16;4.15;;;2.83;;
4198;SDS011;2113;50.946;14.610;2023-11-19T09:19:44;4.07;;;2.45;;
4198;SDS011;2113;50.946;14.610;2023-11-19T09:22:12;7.03;;;3.60;;
4198;SDS011;2113;50.946;14.610;2023-11-19T09:24:41;6.55;;;4.38;;
4198;SDS011;2113;50.946;14.610;2023-11-19T09:27:12;5.97;;;3.75;;
4198;SDS011;2113;50.946;14.610;2023-11-19T09:29:40;6.15;;;3.60;;
4198;SDS011;2113;50.946;14.610;2023-11-19T09:32:09;5.20;;;3.30;;
4198;SDS011;2113;50.946;14.610;2023-11-19T09:34:38;4.90;;;3.00;;
4198;SDS011;2113;50.946;14.610;2023-11-19T09:37:06;3.60;;;2.03;;
4198;SDS011;2113;50.946;14.610;2023-11-19T09:39:47;5.25;;;2.00;;
4198;SDS011;2113;50.946;14.610;2023-11-19T09:42:17;3.08;;;1.95;;
4198;SDS011;2113;50.946;14.610;2023-11-19T09:44:45;3.88;;;1.75;;
4198;SDS011;2113;50.946;14.610;2023-11-19T09:47:16;4.35;;;2.88;;
4198;SDS011;2113;50.946;14.610;2023-11-19T09:49:46;2.70;;;1.60;;
4198;SDS011;2113;50.946;14.610;2023-11-19T09:52:16;3.55;;;1.75;;
4198;SDS011;2113;50.946;14.610;2023-11-19T09:54:45;2.95;;;1.52;;
4198;SDS011;2113;50.946;14.610;2023-11-19T09:57:13;4.35;;;2.33;;
4198;SDS011;2113;50.946;14.610;2023-11-19T09:59:46;3.40;;;1.90;;
4198;SDS011;2113;50.946;14.610;2023-11-19T10:02:15;4.30;;;2.28;;
4198;SDS011;2113;50.946;14.610;2023-11-19T10:04:44;4.28;;;2.70;;
4198;SDS011;2113;50.946;14.610;2023-11-19T10:07:16;5.95;;;2.20;;
4198;SDS011;2113;50.946;14.610;2023-11-19T10:09:44;4.15;;;2.30;;
4198;SDS011;2113;50.946;14.610;2023-11-19T10:12:14;3.97;;;2.60;;
4198;SDS011;2113;50.946;14.610;2023-11-19T10:14:43;4.35;;;3.30;;
4198;SDS011;2113;50.946;14.610;2023-11-19T10:17:13;4.82;;;3.20;;
4198;SDS011;2113;50.946;14.610;2023-11-19T10:19:42;5.78;;;4.25;;
4198;SDS011;2113;50.946;14.610;2023-11-19T10:22:10;5.55;;;3.50;;
4198;SDS011;2113;50.946;14.610;2023-11-19T10:24:40;4.50;;;2.92;;
4198;SDS011;2113;50.946;14.610;2023-11-19T10:27:15;4.15;;;2.85;;
4198;SDS011;2113;50.946;14.610;2023-11-19T10:29:45;5.07;;;3.50;;
4198;SDS011;2113;50.946;14.610;2023-11-19T10:32:14;4.32;;;3.40;;
4198;SDS011;2113;50.946;14.610;2023-11-19T10:34:56;7.38;;;4.35;;
4198;SDS011;2113;50.946;14.610;2023-11-19T10:37:33;6.47;;;3.60;;
4198;SDS011;2113;50.946;14.610;2023-11-19T10:40:05;5.43;;;3.78;;
4198;SDS011;2113;50.946;14.610;2023-11-19T10:42:37;4.63;;;3.30;;
4198;SDS011;2113;50.946;14.610;2023-11-19T10:45:07;4.90;;;3.90;;
4198;SDS011;2113;50.946;14.610;2023-11-19T10:47:50;5.32;;;3.95;;
4198;SDS011;2113;50.946;14.610;2023-11-19T10:50:20;5.93;;;4.25;;
4198;SDS011;2113;50.946;14.610;2023-11-19T10:52:50;5.32;;;3.50;;
4198;SDS011;2113;50.946;14.610;2023-11-19T10:55:24;4.68;;;3.22;;
4198;SDS011;2113;50.946;14.610;2023-11-19T10:57:58;5.63;;;3.60;;
4198;SDS011;2113;50.946;14.610;2023-11-19T11:00:30;5.18;;;3.63;;
4198;SDS011;2113;50.946;14.610;2023-11-19T11:03:02;6.45;;;4.30;;
4198;SDS011;2113;50.946;14.610;2023-11-19T11:05:37;5.38;;;3.55;;
4198;SDS011;2113;50.946;14.610;2023-11-19T11:08:06;6.30;;;3.70;;
4198;SDS011;2113;50.946;14.610;2023-11-19T11:10:38;6.28;;;4.20;;
4198;SDS011;2113;50.946;14.610;2023-11-19T11:13:13;5.63;;;4.05;;
4198;SDS011;2113;50.946;14.610;2023-11-19T11:15:43;7.70;;;4.47;;
4198;SDS011;2113;50.946;14.610;2023-11-19T11:18:13;7.47;;;4.07;;
4198;SDS011;2113;50.946;14.610;2023-11-19T11:20:41;5.30;;;3.58;;
4198;SDS011;2113;50.946;14.610;2023-11-19T11:23:24;5.90;;;3.97;;
4198;SDS011;2113;50.946;14.610;2023-11-19T11:26:18;6.88;;;4.15;;
4198;SDS011;2113;50.946;14.610;2023-11-19T11:29:01;10.02;;;5.00;;
4198;SDS011;2113;50.946;14.610;2023-11-19T11:31:36;5.35;;;3.38;;
4198;SDS011;2113;50.946;14.610;2023-11-19T11:34:21;5.78;;;4.28;;
4198;SDS011;2113;50.946;14.610;2023-11-19T11:37:10;5.30;;;3.53;;
4198;SDS011;2113;50.946;14.610;2023-11-19T11:39:46;11.63;;;4.30;;
4198;SDS011;2113;50.946;14.610;2023-11-19T11:42:31;5.15;;;3.00;;
4198;SDS011;2113;50.946;14.610;2023-11-19T11:45:03;6.15;;;4.25;;
4198;SDS011;2113;50.946;14.610;2023-11-19T11:50:49;7.63;;;4.47;;
4198;SDS011;2113;50.946;14.610;2023-11-19T11:53:20;10.40;;;4.90;;
4198;SDS011;2113;50.946;14.610;2023-11-19T11:55:52;6.80;;;4.50;;
4198;SDS011;2113;50.946;14.610;2023-11-19T11:58:27;7.43;;;4.75;;
4198;SDS011;2113;50.946;14.610;2023-11-19T12:01:00;7.35;;;4.82;;
4198;SDS011;2113;50.946;14.610;2023-11-19T12:03:33;8.57;;;6.20;;
4198;SDS011;2113;50.946;14.610;2023-11-19T12:06:02;8.10;;;5.55;;
4198;SDS011;2113;50.946;14.610;2023-11-19T12:08:31;7.72;;;5.47;;
4198;SDS011;2113;50.946;14.610;2023-11-19T12:11:19;9.10;;;5.55;;
4198;SDS011;2113;50.946;14.610;2023-11-19T12:13:54;7.53;;;4.80;;
4198;SDS011;2113;50.946;14.610;2023-11-19T12:16:25;6.70;;;4.40;;
4198;SDS011;2113;50.946;14.610;2023-11-19T12:18:57;8.88;;;4.65;;
4198;SDS011;2113;50.946;14.610;2023-11-19T12:21:32;7.15;;;3.40;;
4198;SDS011;2113;50.946;14.610;2023-11-19T12:24:04;10.68;;;4.82;;
4198;SDS011;2113;50.946;14.610;2023-11-19T12:26:35;6.68;;;4.25;;
4198;SDS011;2113;50.946;14.610;2023-11-19T12:29:05;5.55;;;3.90;;
4198;SDS011;2113;50.946;14.610;2023-11-19T12:31:35;7.70;;;4.38;;
4198;SDS011;2113;50.946;14.610;2023-11-19T12:34:09;6.15;;;4.30;;
4198;SDS011;2113;50.946;14.610;2023-11-19T12:36:40;11.63;;;4.80;;
4198;SDS011;2113;50.946;14.610;2023-11-19T12:39:10;10.57;;;5.50;;
4198;SDS011;2113;50.946;14.610;2023-11-19T12:41:51;6.88;;;4.07;;
4198;SDS011;2113;50.946;14.610;2023-11-19T12:44:21;11.10;;;4.88;;
4198;SDS011;2113;50.946;14.610;2023-11-19T12:46:59;5.43;;;3.58;;
4198;SDS011;2113;50.946;14.610;2023-11-19T12:49:33;6.65;;;4.20;;
4198;SDS011;2113;50.946;14.610;2023-11-19T12:52:01;6.70;;;4.10;;
4198;SDS011;2113;50.946;14.610;2023-11-19T12:54:33;8.65;;;5.55;;
4198;SDS011;2113;50.946;14.610;2023-11-19T12:57:04;9.90;;;3.92;;
4198;SDS011;2113;50.946;14.610;2023-11-19T12:59:33;11.38;;;4.20;;
4198;SDS011;2113;50.946;14.610;2023-11-19T13:02:01;4.88;;;3.88;;
4198;SDS011;2113;50.946;14.610;2023-11-19T13:04:34;6.82;;;3.90;;
4198;SDS011;2113;50.946;14.610;2023-11-19T13:07:02;5.38;;;3.83;;
4198;SDS011;2113;50.946;14.610;2023-11-19T13:09:32;9.15;;;4.15;;
4198;SDS011;2113;50.946;14.610;2023-11-19T13:12:11;6.88;;;3.67;;
4198;SDS011;2113;50.946;14.610;2023-11-19T13:14:41;5.93;;;3.55;;
4198;SDS011;2113;50.946;14.610;2023-11-19T13:17:14;5.10;;;3.30;;
4198;SDS011;2113;50.946;14.610;2023-11-19T13:19:44;5.20;;;3.47;;
4198;SDS011;2113;50.946;14.610;2023-11-19T13:22:15;5.78;;;3.15;;
4198;SDS011;2113;50.946;14.610;2023-11-19T13:24:43;8.75;;;4.82;;
4198;SDS011;2113;50.946;14.610;2023-11-19T13:27:11;5.82;;;3.22;;
4198;SDS011;2113;50.946;14.610;2023-11-19T13:29:41;8.07;;;4.00;;
4198;SDS011;2113;50.946;14.610;2023-11-19T13:32:09;9.63;;;3.45;;
4198;SDS011;2113;50.946;14.610;2023-11-19T13:34:37;5.97;;;3.45;;
4198;SDS011;2113;50.946;14.610;2023-11-19T13:37:07;8.35;;;3.72;;
4198;SDS011;2113;50.946;14.610;2023-11-19T13:39:35;5.45;;;3.13;;
4198;SDS011;2113;50.946;14.610;2023-11-19T13:42:04;6.93;;;3.67;;
4198;SDS011;2113;50.946;14.610;2023-11-19T13:44:35;8.27;;;3.40;;
4198;SDS011;2113;50.946;14.610;2023-11-19T13:47:03;8.02;;;4.43;;
4198;SDS011;2113;50.946;14.610;2023-11-19T13:49:32;9.57;;;5.88;;
4198;SDS011;2113;50.946;14.610;2023-11-19T13:52:00;12.20;;;6.10;;
4198;SDS011;2113;50.946;14.610;2023-11-19T13:54:30;11.43;;;5.60;;
4198;SDS011;2113;50.946;14.610;2023-11-19T13:56:58;8.60;;;5.85;;
4198;SDS011;2113;50.946;14.610;2023-11-19T13:59:27;13.23;;;6.45;;
4198;SDS011;2113;50.946;14.610;2023-11-19T14:01:55;17.85;;;5.63;;
4198;SDS011;2113;50.946;14.610;2023-11-19T14:04:23;8.70;;;6.22;;
4198;SDS011;2113;50.946;14.610;2023-11-19T14:06:52;14.43;;;6.07;;
4198;SDS011;2113;50.946;14.610;2023-11-19T14:09:22;13.55;;;5.82;;
4198;SDS011;2113;50.946;14.610;2023-11-19T14:11:51;17.08;;;7.35;;
4198;SDS011;2113;50.946;14.610;2023-11-19T14:14:19;9.05;;;6.78;;
4198;SDS011;2113;50.946;14.610;2023-11-19T14:16:47;11.20;;;6.95;;
4198;SDS011;2113;50.946;14.610;2023-11-19T14:19:16;14.80;;;7.82;;
4198;SDS011;2113;50.946;14.610;2023-11-19T14:21:44;11.13;;;7.45;;
4198;SDS011;2113;50.946;14.610;2023-11-19T14:24:14;12.75;;;6.45;;
4198;SDS011;2113;50.946;14.610;2023-11-19T14:26:45;11.65;;;7.43;;
4198;SDS011;2113;50.946;14.610;2023-11-19T14:29:15;14.20;;;6.38;;
4198;SDS011;2113;50.946;14.610;2023-11-19T14:31:43;10.05;;;6.75;;
4198;SDS011;2113;50.946;14.610;2023-11-19T14:34:11;9.68;;;6.32;;
4198;SDS011;2113;50.946;14.610;2023-11-19T14:36:39;12.30;;;6.75;;
4198;SDS011;2113;50.946;14.610;2023-11-19T14:39:07;12.20;;;6.25;;
4198;SDS011;2113;50.946;14.610;2023-11-19T14:41:35;14.00;;;6.75;;
4198;SDS011;2113;50.946;14.610;2023-11-19T14:44:04;12.57;;;7.60;;
4198;SDS011;2113;50.946;14.610;2023-11-19T14:46:34;11.55;;;6.30;;
4198;SDS011;2113;50.946;14.610;2023-11-19T14:49:02;11.85;;;7.25;;
4198;SDS011;2113;50.946;14.610;2023-11-19T14:51:31;10.43;;;6.53;;
4198;SDS011;2113;50.946;14.610;2023-11-19T14:54:00;10.98;;;6.53;;
4198;SDS011;2113;50.946;14.610;2023-11-19T14:56:29;8.07;;;5.80;;
4198;SDS011;2113;50.946;14.610;2023-11-19T14:58:57;16.80;;;7.35;;
4198;SDS011;2113;50.946;14.610;2023-11-19T15:01:26;12.18;;;6.18;;
4198;SDS011;2113;50.946;14.610;2023-11-19T15:03:56;14.48;;;5.70;;
4198;SDS011;2113;50.946;14.610;2023-11-19T15:06:30;9.63;;;5.40;;
4198;SDS011;2113;50.946;14.610;2023-11-19T15:09:00;11.13;;;5.88;;
4198;SDS011;2113;50.946;14.610;2023-11-19T15:11:29;16.35;;;7.80;;
4198;SDS011;2113;50.946;14.610;2023-11-19T15:13:57;13.68;;;7.30;;
4198;SDS011;2113;50.946;14.610;2023-11-19T15:16:26;23.73;;;10.20;;
4198;SDS011;2113;50.946;14.610;2023-11-19T15:18:59;19.52;;;7.78;;
4198;SDS011;2113;50.946;14.610;2023-11-19T15:21:30;15.60;;;7.88;;
4198;SDS011;2113;50.946;14.610;2023-11-19T15:23:59;13.93;;;6.82;;